sensor_id;sensor_type;location;lat;lon;timestamp;P1;durP1;ratioP1;P2;durP2;ratioP2
20986;SDS011;10652;50.306;8.570;2023-06-22T00:03:11;5.35;;;4.65;;
20986;SDS011;10652;50.306;8.570;2023-06-22T00:07:13;4.90;;;4.50;;
20986;SDS011;10652;50.306;8.570;2023-06-22T00:11:15;5.25;;;4.65;;
20986;SDS011;10652;50.306;8.570;2023-06-22T00:15:17;5.35;;;4.65;;
20986;SDS011;10652;50.306;8.570;2023-06-22T00:19:20;5.07;;;4.55;;
20986;SDS011;10652;50.306;8.570;2023-06-22T00:23:23;4.95;;;4.30;;
20986;SDS011;10652;50.306;8.570;2023-06-22T00:27:26;6.13;;;4.80;;
20986;SDS011;10652;50.306;8.570;2023-06-22T00:31:28;4.82;;;4.15;;
20986;SDS011;10652;50.306;8.570;2023-06-22T00:35:30;5.28;;;4.07;;
20986;SDS011;10652;50.306;8.570;2023-06-22T00:39:32;8.38;;;4.30;;
20986;SDS011;10652;50.306;8.570;2023-06-22T00:43:35;4.60;;;4.20;;
20986;SDS011;10652;50.306;8.570;2023-06-22T00:47:37;5.30;;;4.35;;
20986;SDS011;10652;50.306;8.570;2023-06-22T00:51:40;4.90;;;4.35;;
20986;SDS011;10652;50.306;8.570;2023-06-22T00:55:48;5.03;;;4.50;;
20986;SDS011;10652;50.306;8.570;2023-06-22T00:59:53;4.78;;;4.38;;
20986;SDS011;10652;50.306;8.570;2023-06-22T01:03:55;5.45;;;4.57;;
20986;SDS011;10652;50.306;8.570;2023-06-22T01:12:40;5.55;;;4.50;;
20986;SDS011;10652;50.306;8.570;2023-06-22T01:16:46;4.75;;;4.22;;
20986;SDS011;10652;50.306;8.570;2023-06-22T01:20:50;5.07;;;4.53;;
20986;SDS011;10652;50.306;8.570;2023-06-22T01:25:15;5.75;;;4.50;;
20986;SDS011;10652;50.306;8.570;2023-06-22T01:29:23;5.40;;;4.90;;
20986;SDS011;10652;50.306;8.570;2023-06-22T01:33:30;6.00;;;4.72;;
20986;SDS011;10652;50.306;8.570;2023-06-22T01:37:35;6.57;;;4.95;;
20986;SDS011;10652;50.306;8.570;2023-06-22T01:41:39;5.80;;;4.88;;
20986;SDS011;10652;50.306;8.570;2023-06-22T01:45:43;5.60;;;5.10;;
20986;SDS011;10652;50.306;8.570;2023-06-22T01:49:47;5.68;;;5.15;;
20986;SDS011;10652;50.306;8.570;2023-06-22T01:53:50;8.18;;;6.20;;
20986;SDS011;10652;50.306;8.570;2023-06-22T01:57:53;7.55;;;5.80;;
20986;SDS011;10652;50.306;8.570;2023-06-22T02:02:06;5.78;;;5.07;;
20986;SDS011;10652;50.306;8.570;2023-06-22T02:06:14;7.03;;;5.70;;
20986;SDS011;10652;50.306;8.570;2023-06-22T02:10:20;5.65;;;5.15;;
20986;SDS011;10652;50.306;8.570;2023-06-22T02:14:25;6.50;;;5.90;;
20986;SDS011;10652;50.306;8.570;2023-06-22T02:18:28;6.90;;;6.00;;
20986;SDS011;10652;50.306;8.570;2023-06-22T02:22:31;6.13;;;5.53;;
20986;SDS011;10652;50.306;8.570;2023-06-22T02:26:33;6.68;;;5.97;;
20986;SDS011;10652;50.306;8.570;2023-06-22T02:30:36;6.90;;;6.00;;
20986;SDS011;10652;50.306;8.570;2023-06-22T02:34:41;8.88;;;5.80;;
20986;SDS011;10652;50.306;8.570;2023-06-22T02:38:44;7.80;;;6.05;;
20986;SDS011;10652;50.306;8.570;2023-06-22T02:42:49;6.60;;;5.90;;
20986;SDS011;10652;50.306;8.570;2023-06-22T02:46:51;6.53;;;5.90;;
20986;SDS011;10652;50.306;8.570;2023-06-22T02:50:55;6.45;;;5.75;;
20986;SDS011;10652;50.306;8.570;2023-06-22T02:54:57;6.18;;;5.57;;
20986;SDS011;10652;50.306;8.570;2023-06-22T02:58:59;7.10;;;6.40;;
20986;SDS011;10652;50.306;8.570;2023-06-22T03:03:10;7.47;;;6.15;;
20986;SDS011;10652;50.306;8.570;2023-06-22T03:07:13;6.45;;;5.80;;
20986;SDS011;10652;50.306;8.570;2023-06-22T03:11:15;6.90;;;6.30;;
20986;SDS011;10652;50.306;8.570;2023-06-22T03:15:17;6.47;;;5.90;;
20986;SDS011;10652;50.306;8.570;2023-06-22T03:19:21;7.13;;;6.43;;
20986;SDS011;10652;50.306;8.570;2023-06-22T03:23:23;8.68;;;6.80;;
20986;SDS011;10652;50.306;8.570;2023-06-22T03:27:25;6.88;;;6.10;;
20986;SDS011;10652;50.306;8.570;2023-06-22T03:31:28;7.78;;;6.97;;
20986;SDS011;10652;50.306;8.570;2023-06-22T03:35:30;7.47;;;6.47;;
20986;SDS011;10652;50.306;8.570;2023-06-22T03:39:32;7.07;;;6.38;;
20986;SDS011;10652;50.306;8.570;2023-06-22T03:43:35;8.38;;;6.20;;
20986;SDS011;10652;50.306;8.570;2023-06-22T03:47:38;7.93;;;6.30;;
20986;SDS011;10652;50.306;8.570;2023-06-22T03:51:41;6.90;;;5.95;;
20986;SDS011;10652;50.306;8.570;2023-06-22T03:55:50;9.05;;;7.10;;
20986;SDS011;10652;50.306;8.570;2023-06-22T03:59:54;7.50;;;6.80;;
20986;SDS011;10652;50.306;8.570;2023-06-22T04:03:58;7.93;;;6.70;;
20986;SDS011;10652;50.306;8.570;2023-06-22T04:08:00;9.02;;;6.63;;
20986;SDS011;10652;50.306;8.570;2023-06-22T04:12:02;7.90;;;6.85;;
20986;SDS011;10652;50.306;8.570;2023-06-22T04:16:04;7.80;;;6.55;;
20986;SDS011;10652;50.306;8.570;2023-06-22T04:20:07;7.80;;;7.00;;
20986;SDS011;10652;50.306;8.570;2023-06-22T04:24:10;7.45;;;6.68;;
20986;SDS011;10652;50.306;8.570;2023-06-22T04:28:13;7.90;;;7.20;;
20986;SDS011;10652;50.306;8.570;2023-06-22T04:32:15;7.97;;;7.18;;
20986;SDS011;10652;50.306;8.570;2023-06-22T04:36:18;7.95;;;7.05;;
20986;SDS011;10652;50.306;8.570;2023-06-22T04:40:23;7.70;;;7.00;;
20986;SDS011;10652;50.306;8.570;2023-06-22T04:44:25;7.18;;;6.43;;
20986;SDS011;10652;50.306;8.570;2023-06-22T04:48:29;7.53;;;6.82;;
20986;SDS011;10652;50.306;8.570;2023-06-22T04:52:34;8.38;;;6.85;;
20986;SDS011;10652;50.306;8.570;2023-06-22T04:56:36;8.20;;;7.22;;
20986;SDS011;10652;50.306;8.570;2023-06-22T05:00:39;7.90;;;7.13;;
20986;SDS011;10652;50.306;8.570;2023-06-22T05:04:41;9.75;;;7.95;;
20986;SDS011;10652;50.306;8.570;2023-06-22T05:08:43;8.00;;;7.22;;
20986;SDS011;10652;50.306;8.570;2023-06-22T05:12:46;8.10;;;6.75;;
20986;SDS011;10652;50.306;8.570;2023-06-22T05:16:48;8.55;;;7.03;;
20986;SDS011;10652;50.306;8.570;2023-06-22T05:20:51;8.23;;;7.32;;
20986;SDS011;10652;50.306;8.570;2023-06-22T05:24:53;8.50;;;7.63;;
20986;SDS011;10652;50.306;8.570;2023-06-22T05:28:58;7.97;;;7.20;;
20986;SDS011;10652;50.306;8.570;2023-06-22T05:33:00;8.70;;;7.50;;
20986;SDS011;10652;50.306;8.570;2023-06-22T05:37:02;10.25;;;8.13;;
20986;SDS011;10652;50.306;8.570;2023-06-22T05:41:05;9.88;;;7.65;;
20986;SDS011;10652;50.306;8.570;2023-06-22T05:45:07;7.78;;;6.97;;
20986;SDS011;10652;50.306;8.570;2023-06-22T05:49:10;8.10;;;7.28;;
20986;SDS011;10652;50.306;8.570;2023-06-22T05:53:13;8.20;;;7.38;;
20986;SDS011;10652;50.306;8.570;2023-06-22T05:57:15;7.57;;;6.80;;
20986;SDS011;10652;50.306;8.570;2023-06-22T06:01:17;8.52;;;7.07;;
20986;SDS011;10652;50.306;8.570;2023-06-22T06:05:20;8.38;;;7.30;;
20986;SDS011;10652;50.306;8.570;2023-06-22T06:09:22;8.05;;;6.70;;
20986;SDS011;10652;50.306;8.570;2023-06-22T06:13:24;7.57;;;6.72;;
20986;SDS011;10652;50.306;8.570;2023-06-22T06:17:26;7.15;;;6.53;;
20986;SDS011;10652;50.306;8.570;2023-06-22T06:21:28;7.28;;;6.28;;
20986;SDS011;10652;50.306;8.570;2023-06-22T06:25:32;9.90;;;6.88;;
20986;SDS011;10652;50.306;8.570;2023-06-22T06:29:34;7.95;;;7.05;;
20986;SDS011;10652;50.306;8.570;2023-06-22T06:33:36;10.68;;;7.03;;
20986;SDS011;10652;50.306;8.570;2023-06-22T06:37:40;7.68;;;6.45;;
20986;SDS011;10652;50.306;8.570;2023-06-22T06:41:43;8.02;;;6.60;;
20986;SDS011;10652;50.306;8.570;2023-06-22T06:49:53;7.40;;;6.65;;
20986;SDS011;10652;50.306;8.570;2023-06-22T06:53:55;7.05;;;6.35;;
20986;SDS011;10652;50.306;8.570;2023-06-22T06:57:57;7.25;;;6.53;;
20986;SDS011;10652;50.306;8.570;2023-06-22T07:02:00;7.47;;;6.75;;
20986;SDS011;10652;50.306;8.570;2023-06-22T07:06:02;8.18;;;6.80;;
20986;SDS011;10652;50.306;8.570;2023-06-22T07:10:05;7.45;;;6.75;;
20986;SDS011;10652;50.306;8.570;2023-06-22T07:14:08;8.75;;;6.80;;
20986;SDS011;10652;50.306;8.570;2023-06-22T07:18:10;7.22;;;6.53;;
20986;SDS011;10652;50.306;8.570;2023-06-22T07:22:12;8.60;;;7.15;;
20986;SDS011;10652;50.306;8.570;2023-06-22T07:26:14;9.43;;;7.05;;
20986;SDS011;10652;50.306;8.570;2023-06-22T07:30:18;7.80;;;7.00;;
20986;SDS011;10652;50.306;8.570;2023-06-22T07:34:21;10.25;;;7.13;;
20986;SDS011;10652;50.306;8.570;2023-06-22T07:38:23;10.25;;;7.68;;
20986;SDS011;10652;50.306;8.570;2023-06-22T07:42:26;9.40;;;7.15;;
20986;SDS011;10652;50.306;8.570;2023-06-22T07:46:28;8.82;;;7.45;;
20986;SDS011;10652;50.306;8.570;2023-06-22T07:50:32;9.25;;;7.78;;
20986;SDS011;10652;50.306;8.570;2023-06-22T07:54:34;8.57;;;7.25;;
20986;SDS011;10652;50.306;8.570;2023-06-22T07:58:36;8.00;;;6.68;;
20986;SDS011;10652;50.306;8.570;2023-06-22T08:02:39;8.70;;;7.70;;
20986;SDS011;10652;50.306;8.570;2023-06-22T08:06:42;8.85;;;7.97;;
20986;SDS011;10652;50.306;8.570;2023-06-22T08:10:45;11.25;;;7.30;;
20986;SDS011;10652;50.306;8.570;2023-06-22T08:14:47;9.85;;;7.40;;
20986;SDS011;10652;50.306;8.570;2023-06-22T08:18:49;7.85;;;7.15;;
20986;SDS011;10652;50.306;8.570;2023-06-22T08:22:52;9.43;;;7.32;;
20986;SDS011;10652;50.306;8.570;2023-06-22T08:26:55;7.00;;;6.30;;
20986;SDS011;10652;50.306;8.570;2023-06-22T08:30:59;7.13;;;6.43;;
20986;SDS011;10652;50.306;8.570;2023-06-22T08:35:02;7.78;;;6.38;;
20986;SDS011;10652;50.306;8.570;2023-06-22T08:39:04;8.80;;;6.68;;
20986;SDS011;10652;50.306;8.570;2023-06-22T08:43:07;9.77;;;7.20;;
20986;SDS011;10652;50.306;8.570;2023-06-22T08:47:09;6.60;;;6.00;;
20986;SDS011;10652;50.306;8.570;2023-06-22T08:51:11;9.85;;;6.68;;
20986;SDS011;10652;50.306;8.570;2023-06-22T08:55:13;9.85;;;6.72;;
20986;SDS011;10652;50.306;8.570;2023-06-22T08:59:16;7.15;;;6.45;;
20986;SDS011;10652;50.306;8.570;2023-06-22T09:03:18;8.02;;;6.70;;
20986;SDS011;10652;50.306;8.570;2023-06-22T09:07:22;6.90;;;6.20;;
20986;SDS011;10652;50.306;8.570;2023-06-22T09:11:26;10.77;;;6.60;;
20986;SDS011;10652;50.306;8.570;2023-06-22T09:15:28;7.15;;;6.20;;
20986;SDS011;10652;50.306;8.570;2023-06-22T09:19:31;7.10;;;6.38;;
20986;SDS011;10652;50.306;8.570;2023-06-22T09:23:33;9.23;;;6.80;;
20986;SDS011;10652;50.306;8.570;2023-06-22T09:27:35;8.25;;;7.00;;
20986;SDS011;10652;50.306;8.570;2023-06-22T09:31:37;7.40;;;6.60;;
20986;SDS011;10652;50.306;8.570;2023-06-22T09:35:39;6.85;;;6.25;;
20986;SDS011;10652;50.306;8.570;2023-06-22T09:39:41;6.93;;;6.13;;
20986;SDS011;10652;50.306;8.570;2023-06-22T09:43:43;7.65;;;6.32;;
20986;SDS011;10652;50.306;8.570;2023-06-22T09:47:45;7.13;;;6.43;;
20986;SDS011;10652;50.306;8.570;2023-06-22T09:51:48;7.78;;;6.50;;
20986;SDS011;10652;50.306;8.570;2023-06-22T09:55:51;7.15;;;6.22;;
20986;SDS011;10652;50.306;8.570;2023-06-22T09:59:53;7.32;;;6.63;;
20986;SDS011;10652;50.306;8.570;2023-06-22T10:03:55;9.38;;;6.68;;
20986;SDS011;10652;50.306;8.570;2023-06-22T10:07:59;6.85;;;6.20;;
20986;SDS011;10652;50.306;8.570;2023-06-22T10:12:01;7.07;;;6.32;;
20986;SDS011;10652;50.306;8.570;2023-06-22T10:16:03;7.60;;;6.25;;
20986;SDS011;10652;50.306;8.570;2023-06-22T10:20:06;7.50;;;6.43;;
20986;SDS011;10652;50.306;8.570;2023-06-22T10:24:14;7.63;;;6.88;;
20986;SDS011;10652;50.306;8.570;2023-06-22T10:28:17;7.78;;;6.80;;
20986;SDS011;10652;50.306;8.570;2023-06-22T10:32:19;7.43;;;6.00;;
20986;SDS011;10652;50.306;8.570;2023-06-22T10:36:21;6.93;;;6.25;;
20986;SDS011;10652;50.306;8.570;2023-06-22T10:40:24;6.70;;;6.05;;
20986;SDS011;10652;50.306;8.570;2023-06-22T10:44:26;6.90;;;6.30;;
20986;SDS011;10652;50.306;8.570;2023-06-22T10:48:28;7.03;;;6.43;;
20986;SDS011;10652;50.306;8.570;2023-06-22T10:52:30;7.00;;;6.30;;
20986;SDS011;10652;50.306;8.570;2023-06-22T10:56:32;6.72;;;6.13;;
20986;SDS011;10652;50.306;8.570;2023-06-22T11:00:35;7.90;;;6.10;;
20986;SDS011;10652;50.306;8.570;2023-06-22T11:04:38;6.20;;;5.60;;
20986;SDS011;10652;50.306;8.570;2023-06-22T11:08:43;6.45;;;5.93;;
20986;SDS011;10652;50.306;8.570;2023-06-22T11:13:05;6.28;;;5.70;;
20986;SDS011;10652;50.306;8.570;2023-06-22T11:17:12;6.13;;;5.03;;
20986;SDS011;10652;50.306;8.570;2023-06-22T11:21:14;5.18;;;4.50;;
20986;SDS011;10652;50.306;8.570;2023-06-22T11:25:16;4.40;;;4.00;;
20986;SDS011;10652;50.306;8.570;2023-06-22T11:29:19;5.00;;;4.20;;
20986;SDS011;10652;50.306;8.570;2023-06-22T11:33:38;5.88;;;4.80;;
20986;SDS011;10652;50.306;8.570;2023-06-22T11:37:40;5.18;;;4.28;;
20986;SDS011;10652;50.306;8.570;2023-06-22T11:41:46;4.75;;;4.20;;
20986;SDS011;10652;50.306;8.570;2023-06-22T11:45:48;6.10;;;4.78;;
20986;SDS011;10652;50.306;8.570;2023-06-22T11:49:50;5.40;;;4.90;;
20986;SDS011;10652;50.306;8.570;2023-06-22T11:53:53;8.80;;;4.93;;
20986;SDS011;10652;50.306;8.570;2023-06-22T11:57:56;7.65;;;4.95;;
20986;SDS011;10652;50.306;8.570;2023-06-22T12:02:01;8.60;;;4.80;;
20986;SDS011;10652;50.306;8.570;2023-06-22T12:06:03;6.13;;;4.75;;
20986;SDS011;10652;50.306;8.570;2023-06-22T12:10:06;6.20;;;4.82;;
20986;SDS011;10652;50.306;8.570;2023-06-22T12:14:08;10.75;;;5.15;;
20986;SDS011;10652;50.306;8.570;2023-06-22T12:18:11;6.10;;;5.50;;
20986;SDS011;10652;50.306;8.570;2023-06-22T12:22:13;7.13;;;5.47;;
20986;SDS011;10652;50.306;8.570;2023-06-22T12:26:15;6.70;;;5.85;;
20986;SDS011;10652;50.306;8.570;2023-06-22T12:30:17;5.57;;;5.03;;
20986;SDS011;10652;50.306;8.570;2023-06-22T12:34:20;7.50;;;5.40;;
20986;SDS011;10652;50.306;8.570;2023-06-22T12:38:22;6.25;;;5.40;;
20986;SDS011;10652;50.306;8.570;2023-06-22T12:42:25;6.40;;;5.13;;
20986;SDS011;10652;50.306;8.570;2023-06-22T12:46:29;6.70;;;5.50;;
20986;SDS011;10652;50.306;8.570;2023-06-22T12:50:38;8.23;;;5.18;;
20986;SDS011;10652;50.306;8.570;2023-06-22T12:54:40;8.52;;;5.45;;
20986;SDS011;10652;50.306;8.570;2023-06-22T12:58:56;8.32;;;5.85;;
20986;SDS011;10652;50.306;8.570;2023-06-22T13:02:59;6.28;;;5.68;;
20986;SDS011;10652;50.306;8.570;2023-06-22T13:07:01;9.27;;;5.53;;
20986;SDS011;10652;50.306;8.570;2023-06-22T13:11:19;9.50;;;5.72;;
20986;SDS011;10652;50.306;8.570;2023-06-22T13:15:21;9.20;;;5.68;;
20986;SDS011;10652;50.306;8.570;2023-06-22T13:19:23;9.25;;;5.32;;
20986;SDS011;10652;50.306;8.570;2023-06-22T13:23:25;11.07;;;6.00;;
20986;SDS011;10652;50.306;8.570;2023-06-22T13:27:27;7.90;;;5.95;;
20986;SDS011;10652;50.306;8.570;2023-06-22T13:31:30;9.85;;;5.68;;
20986;SDS011;10652;50.306;8.570;2023-06-22T13:35:32;12.70;;;6.35;;
20986;SDS011;10652;50.306;8.570;2023-06-22T13:39:34;9.93;;;6.30;;
20986;SDS011;10652;50.306;8.570;2023-06-22T13:43:36;11.35;;;6.07;;
20986;SDS011;10652;50.306;8.570;2023-06-22T13:47:39;8.60;;;6.40;;
20986;SDS011;10652;50.306;8.570;2023-06-22T13:51:41;8.35;;;5.97;;
20986;SDS011;10652;50.306;8.570;2023-06-22T13:55:43;7.43;;;5.90;;
20986;SDS011;10652;50.306;8.570;2023-06-22T13:59:45;9.73;;;6.00;;
20986;SDS011;10652;50.306;8.570;2023-06-22T14:03:47;10.18;;;5.93;;
20986;SDS011;10652;50.306;8.570;2023-06-22T14:07:50;8.45;;;5.90;;
20986;SDS011;10652;50.306;8.570;2023-06-22T14:11:53;9.63;;;6.18;;
20986;SDS011;10652;50.306;8.570;2023-06-22T14:15:56;7.32;;;5.80;;
20986;SDS011;10652;50.306;8.570;2023-06-22T14:19:58;12.40;;;5.55;;
20986;SDS011;10652;50.306;8.570;2023-06-22T14:24:00;9.35;;;5.82;;
20986;SDS011;10652;50.306;8.570;2023-06-22T14:28:02;8.35;;;5.63;;
20986;SDS011;10652;50.306;8.570;2023-06-22T14:32:04;10.18;;;6.20;;
20986;SDS011;10652;50.306;8.570;2023-06-22T14:36:08;7.63;;;6.28;;
20986;SDS011;10652;50.306;8.570;2023-06-22T14:40:13;9.73;;;5.50;;
20986;SDS011;10652;50.306;8.570;2023-06-22T14:44:15;9.25;;;5.60;;
20986;SDS011;10652;50.306;8.570;2023-06-22T14:48:17;7.80;;;5.38;;
20986;SDS011;10652;50.306;8.570;2023-06-22T14:52:19;7.78;;;5.78;;
20986;SDS011;10652;50.306;8.570;2023-06-22T14:56:21;9.05;;;5.57;;
20986;SDS011;10652;50.306;8.570;2023-06-22T15:00:23;9.23;;;5.57;;
20986;SDS011;10652;50.306;8.570;2023-06-22T15:04:25;7.47;;;5.97;;
20986;SDS011;10652;50.306;8.570;2023-06-22T15:08:33;8.35;;;5.30;;
20986;SDS011;10652;50.306;8.570;2023-06-22T15:12:35;9.93;;;6.32;;
20986;SDS011;10652;50.306;8.570;2023-06-22T15:16:37;9.20;;;5.95;;
20986;SDS011;10652;50.306;8.570;2023-06-22T15:20:40;9.07;;;4.97;;
20986;SDS011;10652;50.306;8.570;2023-06-22T15:24:46;8.70;;;5.07;;
20986;SDS011;10652;50.306;8.570;2023-06-22T15:28:49;9.90;;;4.97;;
20986;SDS011;10652;50.306;8.570;2023-06-22T15:32:51;12.05;;;4.80;;
20986;SDS011;10652;50.306;8.570;2023-06-22T15:36:54;9.05;;;4.60;;
20986;SDS011;10652;50.306;8.570;2023-06-22T15:40:56;14.00;;;5.28;;
20986;SDS011;10652;50.306;8.570;2023-06-22T15:44:58;16.50;;;4.95;;
20986;SDS011;10652;50.306;8.570;2023-06-22T15:49:00;12.93;;;4.50;;
20986;SDS011;10652;50.306;8.570;2023-06-22T15:53:02;11.30;;;4.40;;
20986;SDS011;10652;50.306;8.570;2023-06-22T15:57:04;13.13;;;4.00;;
20986;SDS011;10652;50.306;8.570;2023-06-22T16:01:07;10.45;;;4.07;;
20986;SDS011;10652;50.306;8.570;2023-06-22T16:05:10;13.00;;;4.20;;
20986;SDS011;10652;50.306;8.570;2023-06-22T16:09:12;14.80;;;4.35;;
20986;SDS011;10652;50.306;8.570;2023-06-22T16:13:16;9.77;;;3.25;;
20986;SDS011;10652;50.306;8.570;2023-06-22T16:17:18;8.32;;;3.50;;
20986;SDS011;10652;50.306;8.570;2023-06-22T16:21:20;10.48;;;4.07;;
20986;SDS011;10652;50.306;8.570;2023-06-22T16:25:22;12.63;;;3.78;;
20986;SDS011;10652;50.306;8.570;2023-06-22T16:29:24;6.50;;;2.88;;
20986;SDS011;10652;50.306;8.570;2023-06-22T16:33:27;9.52;;;3.72;;
20986;SDS011;10652;50.306;8.570;2023-06-22T16:37:29;9.57;;;3.50;;
20986;SDS011;10652;50.306;8.570;2023-06-22T16:41:31;6.85;;;3.35;;
20986;SDS011;10652;50.306;8.570;2023-06-22T16:45:33;7.93;;;3.67;;
20986;SDS011;10652;50.306;8.570;2023-06-22T16:49:36;8.93;;;2.90;;
20986;SDS011;10652;50.306;8.570;2023-06-22T16:53:39;4.85;;;2.20;;
20986;SDS011;10652;50.306;8.570;2023-06-22T16:57:41;6.97;;;2.45;;
20986;SDS011;10652;50.306;8.570;2023-06-22T17:01:51;6.32;;;2.10;;
20986;SDS011;10652;50.306;8.570;2023-06-22T17:05:56;7.18;;;2.47;;
20986;SDS011;10652;50.306;8.570;2023-06-22T17:10:02;6.17;;;2.23;;
20986;SDS011;10652;50.306;8.570;2023-06-22T17:14:05;6.72;;;2.33;;
20986;SDS011;10652;50.306;8.570;2023-06-22T17:18:07;9.57;;;2.45;;
20986;SDS011;10652;50.306;8.570;2023-06-22T17:22:11;6.15;;;2.70;;
20986;SDS011;10652;50.306;8.570;2023-06-22T17:26:13;8.13;;;2.78;;
20986;SDS011;10652;50.306;8.570;2023-06-22T17:30:16;5.78;;;2.80;;
20986;SDS011;10652;50.306;8.570;2023-06-22T17:34:20;5.05;;;2.65;;
20986;SDS011;10652;50.306;8.570;2023-06-22T17:38:23;6.50;;;2.60;;
20986;SDS011;10652;50.306;8.570;2023-06-22T17:42:25;6.13;;;2.47;;
20986;SDS011;10652;50.306;8.570;2023-06-22T17:46:36;7.57;;;2.80;;
20986;SDS011;10652;50.306;8.570;2023-06-22T17:50:40;8.90;;;3.05;;
20986;SDS011;10652;50.306;8.570;2023-06-22T17:54:43;7.95;;;2.80;;
20986;SDS011;10652;50.306;8.570;2023-06-22T17:59:05;7.68;;;2.70;;
20986;SDS011;10652;50.306;8.570;2023-06-22T18:03:12;4.40;;;2.25;;
20986;SDS011;10652;50.306;8.570;2023-06-22T18:07:14;7.53;;;2.83;;
20986;SDS011;10652;50.306;8.570;2023-06-22T18:11:17;4.95;;;2.80;;
20986;SDS011;10652;50.306;8.570;2023-06-22T18:15:19;7.13;;;3.08;;
20986;SDS011;10652;50.306;8.570;2023-06-22T18:19:23;8.38;;;3.10;;
20986;SDS011;10652;50.306;8.570;2023-06-22T18:23:26;7.38;;;3.13;;
20986;SDS011;10652;50.306;8.570;2023-06-22T18:27:32;5.57;;;2.80;;
20986;SDS011;10652;50.306;8.570;2023-06-22T18:31:37;9.98;;;3.03;;
20986;SDS011;10652;50.306;8.570;2023-06-22T18:35:40;7.18;;;3.17;;
20986;SDS011;10652;50.306;8.570;2023-06-22T18:39:44;8.38;;;3.17;;
20986;SDS011;10652;50.306;8.570;2023-06-22T18:43:51;6.28;;;2.53;;
20986;SDS011;10652;50.306;8.570;2023-06-22T18:52:06;6.63;;;3.30;;
20986;SDS011;10652;50.306;8.570;2023-06-22T18:56:16;5.93;;;3.38;;
20986;SDS011;10652;50.306;8.570;2023-06-22T19:00:18;7.00;;;3.60;;
20986;SDS011;10652;50.306;8.570;2023-06-22T19:04:32;8.05;;;3.30;;
20986;SDS011;10652;50.306;8.570;2023-06-22T19:09:12;9.93;;;3.33;;
20986;SDS011;10652;50.306;8.570;2023-06-22T19:17:18;6.15;;;3.05;;
20986;SDS011;10652;50.306;8.570;2023-06-22T19:21:21;7.90;;;3.35;;
20986;SDS011;10652;50.306;8.570;2023-06-22T19:25:26;9.52;;;3.50;;
20986;SDS011;10652;50.306;8.570;2023-06-22T19:29:32;9.98;;;3.50;;
20986;SDS011;10652;50.306;8.570;2023-06-22T19:33:34;7.97;;;3.80;;
20986;SDS011;10652;50.306;8.570;2023-06-22T19:37:37;7.25;;;3.10;;
20986;SDS011;10652;50.306;8.570;2023-06-22T19:41:44;6.20;;;3.50;;
20986;SDS011;10652;50.306;8.570;2023-06-22T19:45:47;9.38;;;3.40;;
20986;SDS011;10652;50.306;8.570;2023-06-22T19:49:57;5.13;;;3.20;;
20986;SDS011;10652;50.306;8.570;2023-06-22T19:54:07;7.60;;;3.20;;
20986;SDS011;10652;50.306;8.570;2023-06-22T19:58:10;7.35;;;3.47;;
20986;SDS011;10652;50.306;8.570;2023-06-22T20:02:13;7.85;;;3.35;;
20986;SDS011;10652;50.306;8.570;2023-06-22T20:06:16;8.20;;;3.08;;
20986;SDS011;10652;50.306;8.570;2023-06-22T20:10:20;9.30;;;3.60;;
20986;SDS011;10652;50.306;8.570;2023-06-22T20:14:29;8.13;;;3.03;;
20986;SDS011;10652;50.306;8.570;2023-06-22T20:18:32;8.20;;;3.78;;
20986;SDS011;10652;50.306;8.570;2023-06-22T20:22:40;7.82;;;3.53;;
20986;SDS011;10652;50.306;8.570;2023-06-22T20:26:44;7.57;;;3.22;;
20986;SDS011;10652;50.306;8.570;2023-06-22T20:31:01;9.35;;;3.30;;
20986;SDS011;10652;50.306;8.570;2023-06-22T20:35:08;7.25;;;2.42;;
20986;SDS011;10652;50.306;8.570;2023-06-22T20:39:10;8.13;;;2.40;;
20986;SDS011;10652;50.306;8.570;2023-06-22T20:43:13;8.38;;;1.90;;
20986;SDS011;10652;50.306;8.570;2023-06-22T20:47:16;6.50;;;1.80;;
20986;SDS011;10652;50.306;8.570;2023-06-22T20:51:18;6.25;;;1.70;;
20986;SDS011;10652;50.306;8.570;2023-06-22T20:55:20;3.92;;;1.40;;
20986;SDS011;10652;50.306;8.570;2023-06-22T20:59:23;4.70;;;1.30;;
20986;SDS011;10652;50.306;8.570;2023-06-22T21:03:25;6.18;;;1.05;;
20986;SDS011;10652;50.306;8.570;2023-06-22T21:07:28;3.88;;;1.10;;
20986;SDS011;10652;50.306;8.570;2023-06-22T21:11:31;4.80;;;1.10;;
20986;SDS011;10652;50.306;8.570;2023-06-22T21:15:33;2.40;;;0.90;;
20986;SDS011;10652;50.306;8.570;2023-06-22T21:19:35;4.28;;;1.23;;
20986;SDS011;10652;50.306;8.570;2023-06-22T21:23:37;3.03;;;0.80;;
20986;SDS011;10652;50.306;8.570;2023-06-22T21:27:41;2.88;;;0.90;;
20986;SDS011;10652;50.306;8.570;2023-06-22T21:31:44;2.75;;;0.70;;
20986;SDS011;10652;50.306;8.570;2023-06-22T21:35:47;2.95;;;0.88;;
20986;SDS011;10652;50.306;8.570;2023-06-22T21:39:50;2.13;;;0.90;;
20986;SDS011;10652;50.306;8.570;2023-06-22T21:43:53;2.38;;;0.90;;
20986;SDS011;10652;50.306;8.570;2023-06-22T21:47:55;1.85;;;0.90;;
20986;SDS011;10652;50.306;8.570;2023-06-22T21:51:57;2.00;;;0.90;;
20986;SDS011;10652;50.306;8.570;2023-06-22T21:55:59;2.10;;;0.90;;
20986;SDS011;10652;50.306;8.570;2023-06-22T22:00:02;2.05;;;0.68;;
20986;SDS011;10652;50.306;8.570;2023-06-22T22:04:08;4.03;;;0.68;;
20986;SDS011;10652;50.306;8.570;2023-06-22T22:08:11;1.02;;;0.57;;
20986;SDS011;10652;50.306;8.570;2023-06-22T22:12:13;0.80;;;0.47;;
20986;SDS011;10652;50.306;8.570;2023-06-22T22:16:15;1.58;;;0.50;;
20986;SDS011;10652;50.306;8.570;2023-06-22T22:20:17;0.82;;;0.50;;
20986;SDS011;10652;50.306;8.570;2023-06-22T22:24:19;1.65;;;0.75;;
20986;SDS011;10652;50.306;8.570;2023-06-22T22:28:21;1.42;;;0.82;;
20986;SDS011;10652;50.306;8.570;2023-06-22T22:32:24;2.65;;;1.10;;
20986;SDS011;10652;50.306;8.570;2023-06-22T22:36:26;1.55;;;1.00;;
20986;SDS011;10652;50.306;8.570;2023-06-22T22:40:28;2.45;;;1.10;;
20986;SDS011;10652;50.306;8.570;2023-06-22T22:44:30;2.05;;;1.33;;
20986;SDS011;10652;50.306;8.570;2023-06-22T22:48:32;3.92;;;1.77;;
20986;SDS011;10652;50.306;8.570;2023-06-22T22:52:35;2.97;;;1.80;;
20986;SDS011;10652;50.306;8.570;2023-06-22T22:56:37;3.33;;;2.28;;
20986;SDS011;10652;50.306;8.570;2023-06-22T23:00:39;2.65;;;2.22;;
20986;SDS011;10652;50.306;8.570;2023-06-22T23:04:42;2.25;;;2.10;;
20986;SDS011;10652;50.306;8.570;2023-06-22T23:08:44;2.83;;;2.42;;
20986;SDS011;10652;50.306;8.570;2023-06-22T23:12:46;3.58;;;1.90;;
20986;SDS011;10652;50.306;8.570;2023-06-22T23:16:49;2.75;;;2.00;;
20986;SDS011;10652;50.306;8.570;2023-06-22T23:20:52;3.15;;;2.08;;
20986;SDS011;10652;50.306;8.570;2023-06-22T23:24:54;3.58;;;2.30;;
20986;SDS011;10652;50.306;8.570;2023-06-22T23:28:56;2.70;;;2.50;;
20986;SDS011;10652;50.306;8.570;2023-06-22T23:32:58;2.90;;;2.60;;
20986;SDS011;10652;50.306;8.570;2023-06-22T23:37:00;2.97;;;2.20;;
20986;SDS011;10652;50.306;8.570;2023-06-22T23:41:03;2.92;;;2.22;;
20986;SDS011;10652;50.306;8.570;2023-06-22T23:45:05;3.63;;;2.28;;
20986;SDS011;10652;50.306;8.570;2023-06-22T23:49:08;3.95;;;3.55;;
20986;SDS011;10652;50.306;8.570;2023-06-22T23:53:11;4.25;;;3.85;;
20986;SDS011;10652;50.306;8.570;2023-06-22T23:57:14;4.78;;;4.25;;
